Weather History for Wildwood, NJ

Change the Weather History Date:

Tuesday, November 26, 2013

  Actual Average Record
Temperature  
Mean Temperature 46 °F -  
Max Temperature 55 °F 50 °F 68 °F (1999)
Min Temperature 37 °F 37 °F 21 °F (2005)
Degree Days  
Heating Degree Days 19    
Moisture  
Dew Point 30 °F    
Average Humidity 63    
Maximum Humidity 94    
Minimum Humidity 42    
Precipitation  
Precipitation 0.35 in - - ()
Sea Level Pressure  
Sea Level Pressure 30.20 in    
Wind  
Wind Speed 9 mph (SE)    
Max Wind Speed 21 mph    
Max Gust Speed 29 mph    
Visibility 10 miles    
Events      
Averages and records for this station are not official NWS values.
T = Trace of Precipitation, MM = Missing Value Source: NWS Daily Summary

Daily Weather History Graph

Daily Weather History Graph

Search for Another Location

Airport:

Trip Planner

Search our weather history database for the weather conditions in past years. The results will help you decide how hot, cold, wet, or windy it might be!

Date:

Astronomy

Nov. 26, 2013 Rise Set
Actual Time 6:54 AM EST 4:39 PM EST
Civil Twilight 6:25 AM EST 5:08 PM EST
Nautical Twilight 5:52 AM EST 5:41 PM EST
Astronomical Twilight 5:20 AM EST 6:13 PM EST
Moon No Moon Rise 12:41 PM EST (11/26)
Length of Visible Light 10h 42m
Length of Day
9h 44m
Last Quarter, 41% of the Moon is Illuminated
Nov 26
Last Quarter
Dec 2
New
Dec 9
First Quarter
Dec 17
Full
Dec 25
Last Quarter

Hourly Weather History & Observations

Time (EST) Temp. Windchill Dew Point Humidity Pressure Visibility Wind Dir Wind Speed Gust Speed Precip Events Conditions
12:15 AM 37.4 °F 30.3 °F 21.2 °F 52% 30.41 in 10.0 mi SW 10.4 mph - N/A   Clear
12:35 AM 37.4 °F 30.3 °F 21.2 °F 52% 30.39 in 10.0 mi SW 10.4 mph - N/A   Clear
12:55 AM 37.4 °F 30.3 °F 21.2 °F 52% 30.39 in 10.0 mi SW 10.4 mph - N/A   Clear
1:15 AM 37.4 °F 30.8 °F 21.2 °F 52% 30.39 in 10.0 mi SW 9.2 mph - N/A   Clear
1:35 AM 37.4 °F 30.8 °F 23.0 °F 56% 30.38 in 10.0 mi SW 9.2 mph - N/A   Scattered Clouds
1:55 AM 37.4 °F 30.3 °F 23.0 °F 56% 30.37 in 10.0 mi SW 10.4 mph - N/A   Mostly Cloudy
2:15 AM 39.2 °F 33.0 °F 21.2 °F 49% 30.37 in 10.0 mi SSW 9.2 mph 16.1 mph N/A   Overcast
2:35 AM 39.2 °F 32.0 °F 21.2 °F 49% 30.36 in 10.0 mi SSW 11.5 mph - N/A   Overcast
2:55 AM 39.2 °F 32.0 °F 21.2 °F 49% 30.36 in 10.0 mi SSW 11.5 mph - N/A   Mostly Cloudy
3:15 AM 39.2 °F 32.5 °F 19.4 °F 45% 30.36 in 10.0 mi SW 10.4 mph - N/A   Partly Cloudy
3:35 AM 39.2 °F 32.5 °F 19.4 °F 45% 30.36 in 10.0 mi SW 10.4 mph 19.6 mph N/A   Clear
3:55 AM 39.2 °F 32.5 °F 19.4 °F 45% 30.35 in 10.0 mi SSW 10.4 mph - N/A   Clear
4:15 AM 37.4 °F 30.8 °F 19.4 °F 48% 30.35 in 10.0 mi SSW 9.2 mph - N/A   Clear
4:35 AM 37.4 °F 31.4 °F 19.4 °F 48% 30.35 in 10.0 mi SSW 8.1 mph - N/A   Clear
4:55 AM 37.4 °F 31.4 °F 17.6 °F 45% 30.34 in 10.0 mi SSW 8.1 mph - N/A   Clear
5:15 AM 37.4 °F 32.1 °F 17.6 °F 45% 30.34 in 10.0 mi SSW 6.9 mph - N/A   Mostly Cloudy
5:35 AM 37.4 °F 31.4 °F 19.4 °F 48% 30.34 in 10.0 mi South 8.1 mph - N/A   Overcast
5:55 AM 37.4 °F 34.9 °F 17.6 °F 45% 30.34 in 10.0 mi SW 3.5 mph - N/A   Mostly Cloudy
6:15 AM 37.4 °F 33.8 °F 19.4 °F 48% 30.34 in 10.0 mi South 4.6 mph - N/A   Mostly Cloudy
6:35 AM 37.4 °F 34.9 °F 19.4 °F 48% 30.32 in 10.0 mi South 3.5 mph - N/A   Overcast
6:55 AM 37.4 °F - 21.2 °F 52% 30.33 in 10.0 mi Calm Calm - N/A   Overcast
7:15 AM 37.4 °F - 21.2 °F 52% 30.33 in 10.0 mi Calm Calm - N/A   Overcast
7:35 AM 39.2 °F 34.2 °F 21.2 °F 49% 30.33 in 10.0 mi South 6.9 mph - N/A   Overcast
7:55 AM 39.2 °F 35.9 °F 21.2 °F 49% 30.36 in 10.0 mi West 4.6 mph - N/A   Overcast
8:15 AM 41.0 °F 35.8 °F 21.2 °F 45% 30.35 in 10.0 mi SW 8.1 mph - N/A   Overcast
8:35 AM 41.0 °F 36.4 °F 21.2 °F 45% 30.35 in 10.0 mi SW 6.9 mph - N/A   Mostly Cloudy
8:55 AM 42.8 °F 38.6 °F 21.2 °F 42% 30.35 in 10.0 mi SW 6.9 mph - N/A   Mostly Cloudy
9:15 AM 41.0 °F 37.1 °F 21.2 °F 45% 30.34 in 10.0 mi WSW 5.8 mph - N/A   Overcast
9:35 AM 41.0 °F 37.1 °F 24.8 °F 53% 30.34 in 10.0 mi SW 5.8 mph - N/A   Overcast
9:55 AM 41.0 °F 37.1 °F 24.8 °F 53% 30.34 in 10.0 mi SW 5.8 mph - N/A   Overcast
10:15 AM 42.8 °F 41.1 °F 24.8 °F 49% 30.33 in 10.0 mi West 3.5 mph - N/A   Overcast
10:35 AM 41.0 °F 39.0 °F 21.2 °F 45% 30.31 in 10.0 mi NNW 3.5 mph - N/A   Overcast
10:55 AM 41.0 °F 39.0 °F 23.0 °F 49% 30.30 in 10.0 mi North 3.5 mph - N/A   Overcast
11:15 AM 41.0 °F - 21.2 °F 45% 30.29 in 10.0 mi Calm Calm - N/A   Overcast
11:35 AM 41.0 °F - 23.0 °F 49% 30.27 in 10.0 mi Calm Calm - N/A   Overcast
11:55 AM 41.0 °F 38.0 °F 24.8 °F 53% 30.26 in 10.0 mi NE 4.6 mph - N/A   Overcast
12:15 PM 41.0 °F 37.1 °F 24.8 °F 53% 30.24 in 10.0 mi East 5.8 mph - N/A   Overcast
12:35 PM 41.0 °F 38.0 °F 24.8 °F 53% 30.24 in 10.0 mi ENE 4.6 mph - N/A   Overcast
12:55 PM 39.2 °F 35.0 °F 26.6 °F 61% 30.23 in 10.0 mi NE 5.8 mph - N/A   Overcast
1:15 PM 39.2 °F 37.0 °F 28.4 °F 65% 30.22 in 10.0 mi NE 3.5 mph - N/A   Mostly Cloudy
1:35 PM 39.2 °F 37.0 °F 28.4 °F 65% 30.22 in 10.0 mi ENE 3.5 mph - 0.01 in   Overcast
1:55 PM 39.2 °F 35.9 °F 28.4 °F 65% 30.21 in 10.0 mi ENE 4.6 mph - 0.01 in   Overcast
2:15 PM 39.2 °F 35.0 °F 30.2 °F 70% 30.20 in 10.0 mi ENE 5.8 mph - N/A   Overcast
2:35 PM 39.2 °F 35.9 °F 30.2 °F 70% 30.19 in 10.0 mi ENE 4.6 mph - N/A   Overcast
2:55 PM 39.2 °F 34.2 °F 33.8 °F 81% 30.18 in 10.0 mi East 6.9 mph - 0.01 in   Overcast
3:15 PM 41.0 °F 35.8 °F 33.8 °F 76% 30.17 in 10.0 mi East 8.1 mph - N/A   Overcast
3:35 PM 42.8 °F 37.5 °F 33.8 °F 70% 30.16 in 10.0 mi East 9.2 mph - N/A   Overcast
3:55 PM 42.8 °F 38.0 °F 33.8 °F 70% 30.16 in 10.0 mi East 8.1 mph - N/A   Overcast
4:15 PM 44.6 °F 39.7 °F 35.6 °F 71% 30.15 in 10.0 mi East 9.2 mph - N/A   Overcast
4:35 PM 44.6 °F 40.2 °F 37.4 °F 76% 30.13 in 10.0 mi East 8.1 mph - N/A   Overcast
4:55 PM 44.6 °F 39.7 °F 37.4 °F 76% 30.11 in 10.0 mi East 9.2 mph - 0.01 in   Overcast
5:15 PM 46.4 °F 41.5 °F 39.2 °F 76% 30.09 in 10.0 mi East 10.4 mph - 0.01 in   Overcast
5:35 PM 48.2 °F - 44.6 °F 87% 30.07 in 10.0 mi East 8.1 mph - 0.01 in   Overcast
5:55 PM 48.2 °F - 44.6 °F 87% 30.07 in 8.0 mi East 8.1 mph - 0.03 in   Overcast
6:15 PM 50.0 °F - 46.4 °F 87% 30.05 in 9.0 mi East 11.5 mph - 0.01 in   Overcast
6:35 PM 51.8 °F - 46.4 °F 82% 30.04 in 10.0 mi East 10.4 mph - 0.03 in   Overcast
6:55 PM 51.8 °F - 46.4 °F 82% 30.02 in 10.0 mi East 10.4 mph - 0.04 in   Overcast
7:15 PM 51.8 °F - 46.4 °F 82% 29.98 in 10.0 mi East 13.8 mph 18.4 mph 0.01 in   Overcast
7:35 PM 51.8 °F - 48.2 °F 88% 29.97 in 10.0 mi East 10.4 mph 17.3 mph 0.01 in   Overcast
7:55 PM 53.6 °F - 48.2 °F 82% 29.95 in 10.0 mi East 11.5 mph 19.6 mph 0.01 in   Overcast
8:15 PM 53.6 °F - 48.2 °F 82% 29.94 in 8.0 mi ESE 12.7 mph 18.4 mph 0.01 in   Overcast
8:35 PM 53.6 °F - 50.0 °F 88% 29.92 in 6.0 mi ESE 15.0 mph 19.6 mph 0.05 in   Overcast
8:55 PM 53.6 °F - 50.0 °F 88% 29.90 in 7.0 mi ESE 12.7 mph 21.9 mph 0.08 in   Overcast
9:15 PM 55.4 °F - 51.8 °F 88% 29.87 in 6.0 mi ESE 16.1 mph 25.3 mph 0.04 in   Overcast
9:35 PM 55.4 °F - 51.8 °F 88% 29.84 in 7.0 mi ESE 20.7 mph 25.3 mph 0.08 in   Overcast
9:55 PM 55.4 °F - 51.8 °F 88% 29.82 in 5.0 mi ESE 19.6 mph 28.8 mph 0.10 in   Overcast
10:15 PM 55.4 °F - 51.8 °F 88% 29.79 in 5.0 mi ESE 17.3 mph 26.5 mph 0.04 in   Overcast
10:35 PM 55.4 °F - 51.8 °F 88% 29.77 in 8.0 mi ESE 18.4 mph 25.3 mph 0.05 in   Overcast
10:55 PM 55.4 °F - 53.6 °F 94% 29.74 in 7.0 mi ESE 18.4 mph 24.2 mph 0.06 in   Overcast